createdAt,value
2024-01-19T00:26:35.228Z,2.20
2024-01-19T00:30:40.809Z,1.90
2024-01-19T00:34:46.520Z,2.17
2024-01-19T00:38:53.443Z,1.63
2024-01-19T01:11:40.523Z,1.20
2024-01-19T01:15:46.566Z,0.90
2024-01-19T01:23:57.785Z,1.37
2024-01-19T01:32:09.196Z,1.43
2024-01-19T02:00:51.258Z,1.40
2024-01-19T02:04:57.125Z,1.20
2024-01-19T02:09:02.834Z,1.03
2024-01-19T02:13:08.747Z,1.20
2024-01-19T02:17:14.425Z,1.50
2024-01-19T02:21:20.189Z,1.57
2024-01-19T02:25:26.032Z,1.50
2024-01-19T02:29:31.660Z,1.47
2024-01-19T02:33:37.232Z,1.20
2024-01-19T02:37:42.929Z,1.27
2024-01-19T02:41:48.945Z,1.30
2024-01-19T02:45:54.596Z,1.10
2024-01-19T02:50:00.253Z,1.50
2024-01-19T02:58:11.267Z,1.40
2024-01-19T03:02:16.854Z,1.40
2024-01-19T03:06:24.500Z,1.47
2024-01-19T03:10:30.032Z,1.20
2024-01-19T03:14:35.585Z,1.20
2024-01-19T03:18:41.220Z,1.60
2024-01-19T03:22:46.898Z,1.20
2024-01-19T03:26:52.526Z,1.30
2024-01-19T03:30:58.245Z,1.50
2024-01-19T03:35:04.174Z,1.40
2024-01-19T03:39:09.720Z,1.20
2024-01-19T03:43:15.246Z,1.10
2024-01-19T03:47:20.834Z,1.00
2024-01-19T03:51:26.569Z,0.93
2024-01-19T03:55:32.108Z,1.10
2024-01-19T03:59:37.713Z,1.30
2024-01-19T04:03:46.084Z,1.07
2024-01-19T04:07:52.080Z,1.23
2024-01-19T04:11:57.894Z,1.17
2024-01-19T04:16:05.315Z,1.17
2024-01-19T04:20:11.383Z,1.30
2024-01-19T04:24:16.971Z,1.23
2024-01-19T04:28:22.583Z,1.23
2024-01-19T04:32:28.175Z,1.33
2024-01-19T04:36:33.927Z,1.43
2024-01-19T04:40:39.706Z,1.60
2024-01-19T04:44:45.533Z,1.10
2024-01-19T04:48:51.208Z,1.50
2024-01-19T04:52:57.036Z,0.90
2024-01-19T04:57:03.324Z,1.33
2024-01-19T05:01:09.591Z,1.10
2024-01-19T05:05:16.522Z,1.07
2024-01-19T05:09:22.098Z,1.30
2024-01-19T05:13:27.634Z,1.30
2024-01-19T05:17:33.258Z,1.40
2024-01-19T05:21:38.972Z,1.30
2024-01-19T05:25:44.528Z,1.20
2024-01-19T05:29:50.145Z,1.00
2024-01-19T05:33:55.924Z,1.10
2024-01-19T05:38:01.540Z,1.50
2024-01-19T05:42:07.164Z,1.20
2024-01-19T05:46:15.119Z,1.70
2024-01-19T05:50:20.645Z,1.30
2024-01-19T05:54:26.532Z,1.43
2024-01-19T05:58:32.083Z,1.17
2024-01-19T06:02:37.680Z,1.27
2024-01-19T06:06:43.269Z,1.23
2024-01-19T06:10:48.866Z,1.40
2024-01-19T06:14:54.543Z,1.50
2024-01-19T06:19:00.181Z,1.70
2024-01-19T06:23:06.560Z,1.80
2024-01-19T06:27:15.121Z,1.20
2024-01-19T06:31:20.886Z,1.60
2024-01-19T06:35:26.600Z,1.20
2024-01-19T06:39:32.156Z,1.30
2024-01-19T06:43:38.275Z,1.20
2024-01-19T06:47:44.283Z,1.53
2024-01-19T06:51:49.826Z,1.20
2024-01-19T06:55:55.399Z,1.43
2024-01-19T07:00:15.082Z,1.40
2024-01-19T07:04:20.847Z,1.30
2024-01-19T07:08:26.442Z,1.43
2024-01-19T07:12:32.010Z,1.33
2024-01-19T07:16:41.990Z,1.50
2024-01-19T07:20:47.782Z,1.20
2024-01-19T07:24:53.409Z,1.80
2024-01-19T07:29:00.008Z,1.57
2024-01-19T07:33:09.210Z,1.50
2024-01-19T07:37:18.750Z,1.70
2024-01-19T07:41:24.246Z,1.50
2024-01-19T07:45:30.002Z,1.60
2024-01-19T07:49:35.550Z,1.40
2024-01-19T07:53:41.252Z,1.97
2024-01-19T07:57:47.028Z,1.30
2024-01-19T08:01:52.684Z,1.80
2024-01-19T08:05:59.184Z,2.50
2024-01-19T08:10:05.756Z,1.80
2024-01-19T08:14:11.334Z,1.63
2024-01-19T08:18:17.138Z,1.70
2024-01-19T08:22:22.776Z,2.63
2024-01-19T08:26:29.789Z,2.53
2024-01-19T08:30:35.340Z,2.60
2024-01-19T08:34:43.709Z,1.97
2024-01-19T08:38:49.567Z,2.27
2024-01-19T08:42:55.149Z,2.13
2024-01-19T08:47:00.720Z,2.80
2024-01-19T08:51:06.442Z,2.10
2024-01-19T08:55:12.021Z,2.10
2024-01-19T08:59:19.351Z,2.30
2024-01-19T09:03:25.024Z,2.23
2024-01-19T09:07:30.852Z,2.17
2024-01-19T09:11:36.526Z,2.10
2024-01-19T09:15:42.102Z,1.90
2024-01-19T09:19:47.684Z,2.00
2024-01-19T09:23:54.750Z,2.00
2024-01-19T09:28:03.564Z,1.60
2024-01-19T09:32:09.076Z,1.80
2024-01-19T09:36:14.932Z,1.60
2024-01-19T09:40:22.295Z,1.70
2024-01-19T09:44:30.257Z,1.77
2024-01-19T09:48:45.994Z,1.53
2024-01-19T09:53:01.782Z,1.90
2024-01-19T09:57:07.391Z,2.03
2024-01-19T10:01:13.661Z,1.50
2024-01-19T10:05:21.049Z,1.60
2024-01-19T10:09:26.642Z,1.70
2024-01-19T10:13:32.262Z,1.67
2024-01-19T10:17:38.364Z,2.30
2024-01-19T10:21:44.925Z,1.77
2024-01-19T10:25:52.160Z,1.80
2024-01-19T10:30:21.983Z,1.80
2024-01-19T10:34:28.462Z,1.60
2024-01-19T10:38:34.117Z,1.57
2024-01-19T10:42:44.529Z,1.40
2024-01-19T10:46:51.475Z,2.13
2024-01-19T10:51:03.081Z,2.07
2024-01-19T10:55:09.179Z,1.60
2024-01-19T10:59:16.074Z,1.90
2024-01-19T11:03:21.692Z,1.50
2024-01-19T11:07:27.717Z,1.27
2024-01-19T11:12:00.217Z,1.50
2024-01-19T11:16:15.144Z,1.30
2024-01-19T11:20:23.560Z,1.75
2024-01-19T11:24:34.159Z,2.00
2024-01-19T11:28:56.942Z,1.60
2024-01-19T11:33:20.423Z,2.03
2024-01-19T11:37:46.824Z,2.20
2024-01-19T11:41:52.842Z,1.77
2024-01-19T11:45:58.416Z,1.63
2024-01-19T11:50:12.736Z,2.43
2024-01-19T11:54:27.799Z,1.67
2024-01-19T11:58:41.745Z,2.00
2024-01-19T12:02:49.092Z,1.57
2024-01-19T12:07:05.283Z,1.50
2024-01-19T12:11:15.325Z,1.70
2024-01-19T12:15:21.269Z,1.20
2024-01-19T12:19:27.190Z,1.30
2024-01-19T12:23:34.314Z,1.47
2024-01-19T12:27:39.910Z,0.93
2024-01-19T12:31:45.465Z,1.53
2024-01-19T12:36:12.477Z,1.40
2024-01-19T12:40:23.203Z,1.90
2024-01-19T12:44:28.891Z,1.10
2024-01-19T12:48:36.381Z,1.00
2024-01-19T12:52:42.225Z,1.43
2024-01-19T12:56:50.817Z,0.90
2024-01-19T13:01:06.336Z,1.00
2024-01-19T13:05:29.472Z,1.00
2024-01-19T13:09:35.161Z,1.07
2024-01-19T13:13:40.779Z,0.90
2024-01-19T13:17:47.807Z,0.90
2024-01-19T13:21:54.754Z,0.80
2024-01-19T13:26:01.740Z,1.23
2024-01-19T13:30:08.242Z,1.30
2024-01-19T14:15:17.277Z,0.90
2024-01-19T14:19:22.861Z,0.83
2024-01-19T14:23:28.694Z,0.90
2024-01-19T14:27:35.662Z,0.90
2024-01-19T14:31:43.590Z,1.17
2024-01-19T14:35:49.413Z,1.03
2024-01-19T14:39:54.967Z,1.33
2024-01-19T14:44:00.499Z,1.37
2024-01-19T15:00:23.626Z,1.90
2024-01-19T15:04:29.212Z,1.80
2024-01-19T15:08:34.837Z,2.33
2024-01-19T15:12:40.422Z,2.37
2024-01-19T15:16:45.927Z,1.53
2024-01-19T15:20:51.988Z,2.30
2024-01-19T15:24:57.557Z,1.90
2024-01-19T15:29:03.593Z,2.10
2024-01-19T15:33:09.220Z,2.10
2024-01-19T15:37:15.247Z,2.07
2024-01-19T15:41:25.417Z,2.03
2024-01-19T15:45:31.163Z,1.20
2024-01-19T15:49:40.160Z,1.60
2024-01-19T15:53:46.062Z,2.07
2024-01-19T15:57:51.712Z,2.30
2024-01-19T16:01:59.722Z,1.67
2024-01-19T16:06:08.531Z,1.80
2024-01-19T16:10:14.199Z,1.83
2024-01-19T16:14:19.731Z,1.80
2024-01-19T16:18:25.290Z,1.80
2024-01-19T16:22:31.884Z,1.80
2024-01-19T16:26:37.778Z,1.73
2024-01-19T16:30:44.294Z,1.77
2024-01-19T16:34:49.839Z,1.40
2024-01-19T16:38:55.488Z,1.20
2024-01-19T16:43:00.997Z,1.67
2024-01-19T16:47:06.715Z,1.80
2024-01-19T16:51:17.856Z,1.67
2024-01-19T16:55:23.401Z,1.40
2024-01-19T16:59:29.031Z,2.20
2024-01-19T17:03:34.633Z,1.43
2024-01-19T17:07:40.684Z,1.30
2024-01-19T17:11:46.204Z,1.70
2024-01-19T17:15:51.751Z,1.80
2024-01-19T17:19:57.322Z,1.47
2024-01-19T17:24:04.661Z,1.77
2024-01-19T17:28:10.981Z,3.00
2024-01-19T17:32:18.287Z,1.83
2024-01-19T17:36:24.216Z,1.57
2024-01-19T17:40:30.045Z,2.27
2024-01-19T17:44:36.770Z,1.73
2024-01-19T17:48:42.327Z,1.57
2024-01-19T17:52:49.357Z,1.53
2024-01-19T17:56:56.054Z,2.13
2024-01-19T18:33:56.072Z,2.10
2024-01-19T18:38:02.005Z,1.60
2024-01-19T18:42:08.060Z,2.03
2024-01-19T18:46:13.637Z,1.50
2024-01-19T18:50:19.694Z,1.57
2024-01-19T18:54:25.324Z,1.90
2024-01-19T18:58:30.861Z,1.93
2024-01-19T19:02:36.621Z,2.00
2024-01-19T19:06:42.559Z,2.00
2024-01-19T19:10:48.672Z,1.37
2024-01-19T19:14:54.241Z,1.67
2024-01-19T19:19:00.186Z,1.90
2024-01-19T19:23:05.875Z,2.13
2024-01-19T19:27:11.378Z,1.60
2024-01-19T19:31:16.980Z,1.70
2024-01-19T19:35:22.896Z,1.90
2024-01-19T19:39:30.420Z,1.73
2024-01-19T19:43:35.949Z,1.97
2024-01-19T19:47:41.595Z,1.40
2024-01-19T19:51:48.001Z,1.90
2024-01-19T19:55:53.592Z,2.23
2024-01-19T19:59:59.487Z,1.50
2024-01-19T20:04:05.178Z,1.90
2024-01-19T20:12:16.185Z,1.93
2024-01-19T20:16:22.020Z,1.80
2024-01-19T20:20:27.829Z,1.60
2024-01-19T20:24:33.465Z,1.73
2024-01-19T20:28:39.642Z,1.80
2024-01-19T20:32:45.779Z,2.10
2024-01-19T20:36:51.376Z,1.77
2024-01-19T20:40:58.080Z,2.23
2024-01-19T20:45:05.115Z,1.87
2024-01-19T20:49:10.652Z,2.00
2024-01-19T20:53:16.517Z,1.90
2024-01-19T21:05:33.391Z,2.20
2024-01-19T21:09:44.040Z,1.73
2024-01-19T21:13:52.032Z,1.50
2024-01-19T21:17:58.219Z,2.03
2024-01-19T21:22:06.165Z,1.97
2024-01-19T21:26:17.354Z,1.87
2024-01-19T21:30:22.962Z,2.00
2024-01-19T21:34:28.651Z,1.73
2024-01-19T21:38:34.216Z,2.67
2024-01-19T21:42:47.456Z,2.20
2024-01-19T21:55:07.668Z,2.30
